Time;durP1;ratioP1;P1;durP2;ratioP2;P2;SDS_P1;SDS_P2;PMS_P1;PMS_P2;Temp;Humidity;BMP_temperature;BMP_pressure;BME280_temperature;BME280_humidity;BME280_pressure;Samples;Min_cycle;Max_cycle;Signal;HPM_P1;HPM_P2
2021/07/31 00:01:27;;;;;;;7.63;4.57;;;17.30;81.50;;;;;;5058469;28;20199;-87
2021/07/31 00:03:53;;;;;;;5.43;4.15;;;17.30;81.50;;;;;;5076380;28;20541;-87
2021/07/31 00:06:19;;;;;;;7.63;4.43;;;17.30;81.90;;;;;;5058376;28;20262;-88
2021/07/31 00:08:45;;;;;;;6.95;4.18;;;17.20;81.70;;;;;;5058387;28;20209;-88
2021/07/31 00:11:12;;;;;;;4.90;3.40;;;17.20;81.50;;;;;;5076080;28;20721;-87
2021/07/31 00:13:38;;;;;;;4.13;3.38;;;17.20;81.40;;;;;;5058581;28;20171;-87
2021/07/31 00:16:04;;;;;;;5.68;3.70;;;17.20;81.90;;;;;;5058196;28;20182;-87
2021/07/31 00:18:30;;;;;;;5.47;3.70;;;17.00;82.10;;;;;;5058125;28;20167;-87
2021/07/31 00:20:57;;;;;;;4.47;3.25;;;17.00;82.20;;;;;;5057888;28;20584;-87
2021/07/31 00:23:26;;;;;;;5.40;3.80;;;16.90;82.60;;;;;;5075956;28;20286;-88
2021/07/31 00:25:53;;;;;;;6.20;4.05;;;16.80;82.60;;;;;;5058033;28;20655;-87
2021/07/31 00:28:19;;;;;;;4.95;4.30;;;16.90;82.40;;;;;;5057962;28;20557;-88
2021/07/31 00:30:45;;;;;;;10.23;5.10;;;17.00;82.70;;;;;;5057870;28;20567;-86
2021/07/31 00:33:11;;;;;;;7.15;5.55;;;16.90;83.40;;;;;;5057829;28;20171;-86
2021/07/31 00:35:36;;;;;;;8.02;5.60;;;16.90;83.80;;;;;;5057746;28;20258;-87
2021/07/31 00:38:03;;;;;;;6.68;5.00;;;16.90;83.90;;;;;;5056900;28;20237;-87
2021/07/31 00:40:28;;;;;;;6.75;6.05;;;16.90;84.40;;;;;;5075616;28;20184;-87
2021/07/31 00:42:54;;;;;;;9.00;5.57;;;16.80;84.70;;;;;;5057724;28;20543;-87
2021/07/31 00:45:20;;;;;;;6.00;5.40;;;16.80;85.20;;;;;;5075597;28;20171;-87
2021/07/31 00:47:46;;;;;;;8.55;5.85;;;16.70;85.50;;;;;;5057533;28;20168;-87
2021/07/31 00:50:12;;;;;;;7.35;6.63;;;16.70;85.50;;;;;;5057457;28;20195;-87
2021/07/31 00:52:40;;;;;;;7.80;5.45;;;16.60;85.70;;;;;;5057573;28;20202;-87
2021/07/31 00:55:09;;;;;;;7.25;6.55;;;16.50;85.90;;;;;;5075450;28;20168;-87
2021/07/31 00:57:35;;;;;;;6.97;5.60;;;16.50;85.90;;;;;;5057330;28;20167;-87
2021/07/31 01:00:01;;;;;;;11.68;7.40;;;16.50;85.60;;;;;;5057339;28;20613;-86
2021/07/31 01:02:27;;;;;;;7.50;6.10;;;16.40;86.00;;;;;;5057284;28;20178;-86
2021/07/31 01:04:52;;;;;;;7.15;6.20;;;16.30;86.00;;;;;;5057291;28;20179;-87
2021/07/31 01:07:18;;;;;;;7.20;6.13;;;16.20;86.40;;;;;;5057332;28;20232;-87
2021/07/31 01:09:44;;;;;;;8.50;6.53;;;16.20;86.80;;;;;;5074975;28;20171;-87
2021/07/31 01:12:10;;;;;;;9.73;6.43;;;16.10;87.00;;;;;;5057096;28;20748;-87
2021/07/31 01:14:35;;;;;;;10.17;7.50;;;16.00;87.30;;;;;;5057139;28;20168;-87
2021/07/31 01:17:01;;;;;;;15.40;6.72;;;16.00;87.30;;;;;;5057043;28;20173;-87
2021/07/31 01:19:27;;;;;;;8.00;7.10;;;16.10;87.00;;;;;;5056963;28;20220;-87
2021/07/31 01:21:52;;;;;;;10.07;7.63;;;16.00;87.50;;;;;;5082458;22;20599;-87
2021/07/31 01:24:18;;;;;;;9.60;7.13;;;15.90;87.80;;;;;;5074867;28;20538;-87
2021/07/31 01:26:46;;;;;;;10.43;7.27;;;15.90;87.80;;;;;;5074790;28;20178;-87
2021/07/31 01:29:14;;;;;;;11.03;7.57;;;15.90;87.90;;;;;;5056882;28;20540;-87
2021/07/31 01:31:41;;;;;;;11.90;7.13;;;15.90;88.00;;;;;;5074598;28;20194;-87
2021/07/31 01:34:07;;;;;;;9.47;7.77;;;16.00;88.10;;;;;;5056708;28;20197;-87
2021/07/31 01:36:33;;;;;;;10.03;9.03;;;16.10;88.00;;;;;;5074650;28;20695;-86
2021/07/31 01:39:00;;;;;;;12.37;9.23;;;16.10;88.30;;;;;;5056576;28;20299;-87
2021/07/31 01:41:26;;;;;;;11.93;8.37;;;16.00;88.50;;;;;;5074360;28;20190;-87
2021/07/31 01:43:52;;;;;;;11.47;9.40;;;16.00;88.50;;;;;;5056377;28;20175;-86
2021/07/31 01:46:19;;;;;;;12.27;9.37;;;16.00;88.50;;;;;;5056412;28;20667;-87
2021/07/31 01:48:45;;;;;;;11.73;7.53;;;16.00;88.30;;;;;;5074163;28;20171;-87
2021/07/31 01:51:10;;;;;;;10.73;7.40;;;16.10;87.80;;;;;;5056206;28;20206;-87
2021/07/31 01:53:36;;;;;;;14.27;6.43;;;16.00;87.30;;;;;;5074252;28;20160;-87
2021/07/31 01:56:02;;;;;;;6.63;6.00;;;16.10;86.30;;;;;;5056268;28;20176;-86
2021/07/31 01:58:28;;;;;;;12.13;5.67;;;16.00;86.20;;;;;;5074427;28;20220;-86
2021/07/31 02:00:55;;;;;;;8.17;6.03;;;16.00;86.30;;;;;;5056166;28;20609;-87
2021/07/31 02:03:21;;;;;;;8.77;5.60;;;15.90;86.50;;;;;;5056139;28;20178;-87
2021/07/31 02:05:47;;;;;;;7.93;5.40;;;15.90;86.60;;;;;;5073960;28;20578;-87
2021/07/31 02:08:13;;;;;;;7.53;5.10;;;15.90;86.00;;;;;;5073881;28;20221;-87
2021/07/31 02:10:38;;;;;;;7.20;5.40;;;15.90;86.00;;;;;;5073762;28;20191;-87
2021/07/31 02:13:04;;;;;;;5.93;4.20;;;15.80;85.60;;;;;;5074152;28;20655;-87
2021/07/31 02:15:30;;;;;;;9.43;4.07;;;15.80;85.00;;;;;;5056003;28;20548;-87
2021/07/31 02:17:56;;;;;;;13.83;4.57;;;15.70;84.80;;;;;;5055850;28;20175;-87
2021/07/31 02:20:22;;;;;;;5.73;3.47;;;15.70;84.40;;;;;;5055632;28;20242;-87
2021/07/31 02:22:49;;;;;;;10.73;4.63;;;15.70;84.20;;;;;;5055842;28;20178;-87
2021/07/31 02:25:15;;;;;;;6.87;3.10;;;15.70;84.00;;;;;;5055697;28;20179;-87
2021/07/31 02:27:40;;;;;;;7.87;3.53;;;15.70;83.60;;;;;;5055726;28;20190;-87
2021/07/31 02:30:07;;;;;;;9.53;3.27;;;15.70;83.70;;;;;;5055593;28;20179;-87
2021/07/31 02:32:32;;;;;;;6.20;3.00;;;15.60;84.00;;;;;;5055507;28;20195;-86
2021/07/31 02:34:58;;;;;;;5.80;3.47;;;15.60;83.80;;;;;;5073839;28;20233;-87
2021/07/31 02:37:24;;;;;;;8.10;3.60;;;15.70;83.50;;;;;;5073437;28;20181;-87
2021/07/31 02:39:50;;;;;;;7.23;3.17;;;15.70;83.30;;;;;;5055754;28;20262;-87
2021/07/31 02:42:16;;;;;;;6.63;3.10;;;15.70;83.20;;;;;;5055480;28;20171;-87
2021/07/31 02:44:42;;;;;;;11.20;3.33;;;15.70;82.80;;;;;;5073418;28;20607;-87
2021/07/31 02:47:07;;;;;;;9.03;3.03;;;15.70;82.20;;;;;;5073382;28;20250;-87
2021/07/31 02:49:33;;;;;;;9.67;3.20;;;15.70;81.90;;;;;;5055415;28;20254;-86
2021/07/31 02:51:59;;;;;;;7.30;2.70;;;15.80;81.60;;;;;;5055228;28;20211;-87
2021/07/31 02:54:25;;;;;;;6.03;2.90;;;15.80;81.70;;;;;;5055427;28;20179;-87
2021/07/31 02:56:50;;;;;;;5.67;2.50;;;15.80;81.10;;;;;;5073244;28;20225;-87
2021/07/31 02:59:16;;;;;;;7.03;2.50;;;15.90;80.50;;;;;;5073221;28;20167;-87
2021/07/31 03:01:42;;;;;;;6.90;2.63;;;15.90;80.80;;;;;;5054745;28;20237;-87
2021/07/31 03:04:07;;;;;;;5.27;2.57;;;15.80;81.30;;;;;;5055279;28;20175;-87
2021/07/31 03:06:33;;;;;;;6.40;2.50;;;15.70;81.40;;;;;;5073151;28;20657;-87
2021/07/31 03:08:58;;;;;;;8.97;2.60;;;15.60;81.10;;;;;;5073386;28;20186;-87
2021/07/31 03:11:24;;;;;;;7.53;2.40;;;15.60;81.30;;;;;;5073079;28;20619;-87
2021/07/31 03:13:50;;;;;;;7.07;2.73;;;15.60;81.60;;;;;;5073054;28;20639;-86
2021/07/31 03:16:16;;;;;;;7.43;2.70;;;15.50;82.00;;;;;;5055364;28;20643;-87
2021/07/31 03:18:42;;;;;;;4.23;2.57;;;15.40;82.20;;;;;;5055104;28;20179;-87
2021/07/31 03:21:07;;;;;;;6.10;2.77;;;15.30;82.80;;;;;;5072848;28;20213;-87
2021/07/31 03:23:33;;;;;;;6.70;2.80;;;15.30;82.90;;;;;;5055058;28;20266;-87
2021/07/31 03:26:00;;;;;;;6.90;3.07;;;15.30;83.20;;;;;;5055978;28;20214;-86
2021/07/31 03:28:26;;;;;;;5.90;3.13;;;15.20;83.70;;;;;;5055178;28;20187;-86
2021/07/31 03:30:52;;;;;;;5.27;2.93;;;15.20;84.10;;;;;;5054943;28;20289;-87
2021/07/31 03:33:18;;;;;;;7.13;3.30;;;15.30;84.20;;;;;;5054870;28;20262;-87
2021/07/31 03:35:44;;;;;;;7.60;3.20;;;15.40;83.90;;;;;;5054992;28;20221;-86
2021/07/31 03:38:11;;;;;;;5.57;3.13;;;15.40;84.00;;;;;;5054969;28;20179;-87
2021/07/31 03:40:37;;;;;;;7.07;3.27;;;15.50;83.90;;;;;;5072785;28;20709;-87
2021/07/31 03:43:04;;;;;;;5.13;3.03;;;15.40;83.90;;;;;;5054847;28;20175;-87
2021/07/31 03:45:30;;;;;;;4.97;3.00;;;15.40;83.90;;;;;;5072820;28;20526;-87
2021/07/31 03:47:55;;;;;;;7.97;3.10;;;15.40;84.00;;;;;;5072759;28;20170;-87
2021/07/31 03:50:22;;;;;;;6.30;3.00;;;15.40;83.70;;;;;;5054719;28;20233;-87
2021/07/31 03:52:48;;;;;;;8.90;3.30;;;15.40;83.60;;;;;;5072649;28;20211;-86
2021/07/31 03:55:13;;;;;;;4.90;3.17;;;15.30;83.90;;;;;;5054685;28;20179;-87
2021/07/31 03:57:39;;;;;;;6.53;3.27;;;15.40;83.90;;;;;;5072726;28;20167;-86
2021/07/31 04:00:06;;;;;;;6.97;3.40;;;15.40;83.70;;;;;;5054920;28;20213;-87
2021/07/31 04:02:35;;;;;;;10.73;2.90;;;15.50;83.80;;;;;;5054537;28;20290;-86
2021/07/31 04:05:01;;;;;;;4.53;3.03;;;15.60;83.10;;;;;;5054657;28;20667;-86
2021/07/31 04:07:27;;;;;;;5.70;2.77;;;15.60;83.30;;;;;;5054653;28;20241;-87
2021/07/31 04:09:53;;;;;;;5.27;2.70;;;15.60;83.40;;;;;;5054527;28;20207;-87
2021/07/31 04:12:18;;;;;;;11.33;3.23;;;15.70;83.30;;;;;;5072472;28;20222;-86
2021/07/31 04:14:44;;;;;;;5.03;2.63;;;15.70;83.10;;;;;;5058316;28;20661;-86
2021/07/31 04:17:11;;;;;;;8.27;2.37;;;15.70;82.50;;;;;;5058130;28;20176;-86
2021/07/31 04:19:38;;;;;;;8.67;2.93;;;15.80;82.20;;;;;;5058179;28;20555;-86
2021/07/31 04:22:04;;;;;;;6.83;2.60;;;15.80;82.40;;;;;;5057965;28;20215;-87
2021/07/31 04:24:30;;;;;;;4.80;2.63;;;15.80;81.70;;;;;;5075968;28;20171;-87
2021/07/31 04:26:55;;;;;;;9.50;2.87;;;15.80;81.80;;;;;;5075980;28;20278;-87
2021/07/31 04:29:21;;;;;;;7.67;2.73;;;15.80;81.80;;;;;;5076020;28;20175;-86
2021/07/31 04:31:48;;;;;;;7.57;2.90;;;15.80;81.60;;;;;;5057775;28;20585;-87
2021/07/31 04:34:14;;;;;;;6.30;2.80;;;15.80;81.40;;;;;;5075824;28;20523;-87
2021/07/31 04:36:40;;;;;;;7.60;2.80;;;15.90;81.70;;;;;;5057834;28;20599;-86
2021/07/31 04:39:06;;;;;;;6.70;2.90;;;15.80;81.50;;;;;;5057663;28;20270;-87
2021/07/31 04:41:32;;;;;;;5.70;2.33;;;15.80;81.40;;;;;;5075615;28;20298;-86
2021/07/31 04:43:58;;;;;;;10.70;2.90;;;15.80;81.60;;;;;;5057715;28;20175;-87
2021/07/31 04:46:24;;;;;;;5.57;2.90;;;15.80;81.60;;;;;;5057651;28;20279;-86
2021/07/31 04:48:50;;;;;;;8.67;2.77;;;15.90;81.10;;;;;;5075547;28;20215;-87
2021/07/31 04:51:16;;;;;;;5.53;2.40;;;15.90;81.10;;;;;;5075484;28;20280;-87
2021/07/31 04:53:42;;;;;;;6.73;2.70;;;15.90;81.30;;;;;;5057516;28;20257;-87
2021/07/31 04:56:08;;;;;;;7.90;2.37;;;15.90;81.10;;;;;;5075543;28;20171;-86
2021/07/31 04:58:33;;;;;;;6.33;2.37;;;16.00;80.50;;;;;;5075320;28;20251;-87
2021/07/31 05:00:59;;;;;;;7.40;2.80;;;16.00;80.70;;;;;;5075530;28;20195;-86
2021/07/31 05:03:28;;;;;;;6.20;2.60;;;16.00;80.50;;;;;;5075535;28;20176;-86
2021/07/31 05:05:55;;;;;;;10.83;3.40;;;16.10;80.20;;;;;;5075235;28;20206;-86
2021/07/31 05:08:20;;;;;;;4.87;2.73;;;16.10;80.40;;;;;;5075148;28;20228;-87
2021/07/31 05:10:48;;;;;;;7.17;2.70;;;16.20;80.20;;;;;;5075076;28;20573;-86
2021/07/31 05:13:14;;;;;;;7.93;2.60;;;16.20;80.00;;;;;;5057145;28;20175;-86
2021/07/31 05:15:42;;;;;;;6.50;2.20;;;16.20;80.00;;;;;;5075099;28;20168;-87
2021/07/31 05:18:08;;;;;;;14.83;2.87;;;16.20;79.50;;;;;;5057020;28;20186;-87
2021/07/31 05:20:38;;;;;;;4.77;2.57;;;16.20;79.90;;;;;;5074921;28;20241;-87
2021/07/31 05:23:03;;;;;;;5.77;3.23;;;16.20;79.90;;;;;;5057109;28;20171;-87
2021/07/31 05:25:29;;;;;;;6.40;2.63;;;16.20;79.80;;;;;;5074577;28;20182;-87
2021/07/31 05:27:55;;;;;;;6.53;2.67;;;16.10;79.90;;;;;;5057343;28;20186;-87
2021/07/31 05:30:21;;;;;;;7.83;2.90;;;16.20;80.10;;;;;;5056687;28;20344;-87
2021/07/31 05:32:46;;;;;;;7.07;2.70;;;16.20;80.20;;;;;;5056769;28;20667;-87
2021/07/31 05:35:12;;;;;;;9.37;3.03;;;16.20;79.80;;;;;;5074602;28;20305;-87
2021/07/31 05:37:38;;;;;;;6.90;2.70;;;16.20;79.90;;;;;;5074575;28;20358;-87
2021/07/31 05:40:05;;;;;;;7.67;2.77;;;16.20;80.10;;;;;;5074631;28;20183;-87
2021/07/31 05:42:31;;;;;;;6.47;3.37;;;16.20;79.80;;;;;;5074410;28;20631;-87
2021/07/31 05:44:58;;;;;;;8.63;3.10;;;16.20;80.30;;;;;;5056474;28;20182;-88
2021/07/31 05:47:26;;;;;;;4.63;2.67;;;16.20;79.70;;;;;;5074278;28;20179;-87
2021/07/31 05:49:54;;;;;;;11.63;3.13;;;16.20;79.10;;;;;;5074819;28;20221;-87
2021/07/31 05:52:24;;;;;;;6.70;2.70;;;16.30;79.40;;;;;;5056357;28;20200;-86
2021/07/31 05:54:51;;;;;;;8.87;2.60;;;16.30;79.60;;;;;;5074403;28;20239;-86
2021/07/31 05:57:17;;;;;;;6.13;2.23;;;16.30;79.20;;;;;;5074450;28;20168;-87
2021/07/31 05:59:43;;;;;;;6.50;2.30;;;16.30;79.30;;;;;;5074368;28;20217;-87
2021/07/31 06:02:10;;;;;;;8.23;3.47;;;16.40;79.50;;;;;;5074267;28;20203;-86
2021/07/31 06:04:36;;;;;;;4.13;2.05;;;16.30;79.20;;;;;;5056299;28;20566;-87
2021/07/31 06:07:06;;;;;;;8.03;2.70;;;16.40;78.50;;;;;;5056564;28;20203;-86
2021/07/31 06:09:35;;;;;;;5.97;2.67;;;16.40;78.50;;;;;;5056193;28;20313;-87
2021/07/31 06:12:02;;;;;;;11.63;3.60;;;16.40;78.80;;;;;;5056121;28;20578;-87
2021/07/31 06:14:27;;;;;;;6.20;2.47;;;16.40;78.80;;;;;;5056180;28;20631;-86
2021/07/31 06:16:53;;;;;;;8.10;2.90;;;16.40;78.20;;;;;;5056078;28;20186;-87
2021/07/31 06:19:20;;;;;;;10.30;2.43;;;16.40;79.00;;;;;;5073991;28;20244;-87
2021/07/31 06:21:45;;;;;;;5.43;2.53;;;16.50;78.70;;;;;;5073700;28;20214;-87
2021/07/31 06:24:11;;;;;;;4.20;2.20;;;16.50;78.10;;;;;;5074076;28;20156;-86
2021/07/31 06:26:37;;;;;;;7.20;2.80;;;16.50;78.30;;;;;;5073656;28;20561;-87
2021/07/31 06:29:03;;;;;;;8.80;2.73;;;16.50;79.10;;;;;;5073716;28;20639;-86
2021/07/31 06:31:28;;;;;;;6.63;2.85;;;16.50;78.70;;;;;;5073477;28;20214;-86
2021/07/31 06:33:54;;;;;;;8.13;2.65;;;16.90;78.20;;;;;;5073758;28;20173;-87
2021/07/31 06:36:20;;;;;;;8.30;2.78;;;17.10;77.50;;;;;;5055137;28;20256;-87
2021/07/31 06:38:46;;;;;;;9.35;2.92;;;17.10;77.60;;;;;;5073729;28;20242;-87
2021/07/31 06:41:13;;;;;;;5.75;3.03;;;17.10;78.20;;;;;;5073451;28;20207;-87
2021/07/31 06:43:39;;;;;;;6.03;2.72;;;17.00;77.30;;;;;;5055697;28;20179;-86
2021/07/31 06:46:15;;;;;;;13.45;2.78;;;16.80;77.30;;;;;;5055862;28;20577;-86
2021/07/31 06:48:42;;;;;;;12.07;3.28;;;16.80;77.40;;;;;;5073769;28;20194;-86
2021/07/31 06:51:08;;;;;;;8.98;3.40;;;16.90;76.90;;;;;;5073249;28;20249;-86
2021/07/31 06:53:34;;;;;;;8.25;2.55;;;16.90;78.00;;;;;;5055459;28;20175;-86
2021/07/31 06:56:01;;;;;;;11.73;3.22;;;16.80;76.70;;;;;;5073317;28;20174;-86
2021/07/31 06:58:26;;;;;;;6.03;2.80;;;16.80;77.10;;;;;;5055443;28;20650;-86
2021/07/31 07:00:52;;;;;;;6.63;2.60;;;16.70;77.40;;;;;;5073198;28;20244;-87
2021/07/31 07:03:19;;;;;;;7.68;2.72;;;16.70;77.00;;;;;;5055394;28;20173;-86
2021/07/31 07:05:44;;;;;;;12.25;3.05;;;16.80;76.90;;;;;;5055214;28;20171;-86
2021/07/31 07:08:10;;;;;;;6.82;2.53;;;17.10;77.00;;;;;;5056119;28;20178;-87
2021/07/31 07:10:36;;;;;;;9.25;2.80;;;17.20;76.10;;;;;;5073096;28;20258;-87
2021/07/31 07:13:02;;;;;;;9.77;3.60;;;17.40;75.80;;;;;;5073256;28;20168;-86
2021/07/31 07:15:28;;;;;;;8.18;2.97;;;17.30;75.30;;;;;;5055248;28;20183;-86
2021/07/31 07:17:55;;;;;;;6.75;2.55;;;17.50;74.90;;;;;;5055145;28;20657;-87
2021/07/31 07:20:20;;;;;;;11.25;2.95;;;17.60;74.80;;;;;;5073057;28;20207;-86
2021/07/31 07:22:46;;;;;;;10.25;2.83;;;17.50;74.30;;;;;;5055358;28;20270;-86
2021/07/31 07:25:12;;;;;;;5.43;2.25;;;17.50;75.00;;;;;;5073065;28;20167;-87
2021/07/31 07:27:37;;;;;;;4.07;2.13;;;17.60;75.00;;;;;;5055213;28;20261;-86
2021/07/31 07:30:04;;;;;;;12.13;2.78;;;17.40;74.50;;;;;;5073012;28;20172;-87
2021/07/31 07:32:30;;;;;;;9.43;3.00;;;17.30;75.40;;;;;;5055025;28;20203;-87
2021/07/31 07:34:55;;;;;;;7.68;2.70;;;17.40;75.30;;;;;;5073269;28;20185;-86
2021/07/31 07:37:21;;;;;;;7.88;2.53;;;17.40;74.60;;;;;;5055044;28;20174;-87
2021/07/31 07:39:47;;;;;;;6.22;2.55;;;17.60;74.90;;;;;;5072940;28;20246;-86
2021/07/31 07:42:12;;;;;;;3.38;2.10;;;17.60;74.60;;;;;;5072868;28;20198;-86
2021/07/31 07:44:38;;;;;;;5.15;2.25;;;17.60;73.90;;;;;;5055112;28;20194;-86
2021/07/31 07:47:04;;;;;;;13.27;3.00;;;17.60;74.20;;;;;;5074291;28;20214;-87
2021/07/31 07:49:29;;;;;;;10.60;2.65;;;17.50;74.40;;;;;;5059002;28;20195;-87
2021/07/31 07:51:55;;;;;;;4.55;2.40;;;17.60;74.40;;;;;;5076687;28;20204;-87
2021/07/31 07:54:21;;;;;;;9.73;2.60;;;17.70;74.70;;;;;;5076791;28;20206;-87
2021/07/31 07:56:47;;;;;;;6.82;1.55;;;17.80;74.60;;;;;;5077151;28;20164;-86
2021/07/31 07:59:13;;;;;;;7.20;2.50;;;18.00;74.50;;;;;;5076884;28;20174;-87
2021/07/31 08:01:38;;;;;;;4.55;1.98;;;18.20;74.10;;;;;;5076603;28;20195;-86
2021/07/31 08:04:04;;;;;;;10.52;1.83;;;18.10;73.00;;;;;;5058640;28;20179;-86
2021/07/31 08:06:30;;;;;;;4.38;2.10;;;18.00;74.30;;;;;;5076599;28;20537;-86
2021/07/31 08:08:55;;;;;;;8.50;2.40;;;17.80;74.30;;;;;;5058505;28;20175;-87
2021/07/31 08:11:21;;;;;;;3.92;1.60;;;17.80;75.20;;;;;;5076127;28;20671;-86
2021/07/31 08:13:47;;;;;;;6.30;2.00;;;17.50;74.80;;;;;;5058651;28;20211;-86
2021/07/31 08:16:13;;;;;;;4.18;2.50;;;17.50;75.60;;;;;;5076402;28;20250;-87
2021/07/31 08:18:38;;;;;;;4.60;2.20;;;17.50;76.10;;;;;;5076446;28;20171;-87
2021/07/31 08:21:04;;;;;;;7.25;3.08;;;17.60;76.30;;;;;;5076139;28;20214;-87
2021/07/31 08:23:30;;;;;;;3.25;1.60;;;17.70;76.20;;;;;;5058371;28;20183;-87
2021/07/31 08:25:56;;;;;;;5.82;2.30;;;17.60;76.00;;;;;;5076389;28;20540;-87
2021/07/31 08:28:21;;;;;;;4.88;2.60;;;17.80;75.60;;;;;;5076278;28;20518;-87
2021/07/31 08:30:47;;;;;;;7.50;2.30;;;17.70;75.50;;;;;;5076020;28;20187;-87
2021/07/31 08:33:13;;;;;;;7.25;2.53;;;17.50;75.80;;;;;;5076038;28;20210;-87
2021/07/31 08:35:38;;;;;;;6.45;2.40;;;17.50;76.50;;;;;;5058196;28;20188;-87
2021/07/31 08:38:04;;;;;;;7.07;2.35;;;17.40;76.90;;;;;;5075909;28;20175;-87
2021/07/31 08:40:32;;;;;;;9.30;3.13;;;17.40;77.30;;;;;;5075655;28;20191;-87
2021/07/31 08:42:58;;;;;;;5.07;2.20;;;17.50;77.10;;;;;;5075798;28;20183;-87
2021/07/31 08:45:23;;;;;;;6.85;2.63;;;17.60;76.70;;;;;;5075649;28;20178;-87
2021/07/31 08:47:50;;;;;;;6.45;2.85;;;17.40;77.20;;;;;;5057740;28;20654;-87
2021/07/31 08:50:18;;;;;;;5.50;2.75;;;17.50;77.70;;;;;;5057551;28;20291;-87
2021/07/31 08:52:48;;;;;;;7.10;2.53;;;17.50;77.10;;;;;;5075414;28;20191;-86
2021/07/31 08:55:14;;;;;;;4.88;2.67;;;17.60;76.60;;;;;;5057559;28;20175;-87
2021/07/31 08:57:39;;;;;;;9.13;3.03;;;17.50;76.40;;;;;;5075709;28;20168;-86
2021/07/31 09:00:06;;;;;;;5.95;2.88;;;17.50;77.20;;;;;;5074949;28;20602;-86
2021/07/31 09:02:47;;;;;;;9.57;3.10;;;17.40;77.60;;;;;;5075446;28;20198;-87
2021/07/31 09:05:32;;;;;;;5.68;2.90;;;17.40;79.00;;;;;;5075391;28;20182;-87
2021/07/31 09:08:02;;;;;;;7.68;3.30;;;17.50;78.70;;;;;;5057380;28;20179;-86
2021/07/31 09:10:29;;;;;;;11.85;3.95;;;17.40;77.90;;;;;;5075185;28;20195;-87
2021/07/31 09:12:58;;;;;;;10.05;3.30;;;17.40;78.30;;;;;;5075185;28;20245;-87
2021/07/31 09:15:36;;;;;;;8.57;2.53;;;17.50;78.00;;;;;;5057100;28;20221;-87
2021/07/31 09:18:22;;;;;;;7.53;2.78;;;17.50;77.40;;;;;;5074992;28;20667;-87
2021/07/31 09:21:15;;;;;;;5.30;2.45;;;17.80;77.30;;;;;;5074769;28;20252;-86
2021/07/31 09:23:51;;;;;;;4.97;2.33;;;18.20;76.90;;;;;;5071945;28;20205;-86
2021/07/31 09:26:24;;;;;;;5.68;2.83;;;18.10;75.80;;;;;;5057079;28;20179;-86
2021/07/31 09:29:09;;;;;;;9.30;2.78;;;18.30;75.30;;;;;;5074991;28;20225;-86
2021/07/31 09:31:50;;;;;;;3.25;2.17;;;18.70;74.50;;;;;;5056766;28;20204;-87
2021/07/31 09:34:33;;;;;;;5.63;2.50;;;18.50;75.00;;;;;;5056795;28;20174;-87
2021/07/31 09:37:16;;;;;;;6.72;2.80;;;18.80;75.10;;;;;;5056736;28;20599;-87
2021/07/31 09:39:51;;;;;;;12.20;2.75;;;18.80;74.70;;;;;;5074641;28;20155;-86
2021/07/31 09:42:36;;;;;;;4.15;2.15;;;18.90;73.10;;;;;;5074798;28;20170;-87
2021/07/31 09:45:11;;;;;;;5.82;2.20;;;18.90;71.50;;;;;;5074751;28;20176;-87
2021/07/31 09:47:39;;;;;;;7.45;2.50;;;18.80;73.00;;;;;;5056521;28;20260;-86
2021/07/31 09:50:06;;;;;;;8.32;2.85;;;18.60;73.10;;;;;;5074420;28;20246;-87
2021/07/31 09:52:33;;;;;;;5.35;2.55;;;18.70;72.90;;;;;;5074355;28;20199;-87
2021/07/31 09:54:59;;;;;;;2.92;2.30;;;18.70;72.80;;;;;;5056318;28;20712;-88
2021/07/31 09:57:29;;;;;;;4.75;2.13;;;18.80;72.10;;;;;;5056311;28;20180;-88
2021/07/31 09:59:58;;;;;;;7.97;2.47;;;19.20;72.70;;;;;;5074048;28;20643;-88
2021/07/31 10:02:24;;;;;;;5.75;2.20;;;19.40;70.00;;;;;;5056472;28;20519;-87
2021/07/31 10:04:52;;;;;;;8.15;2.40;;;19.30;71.80;;;;;;5056117;28;20182;-87
2021/07/31 10:07:18;;;;;;;6.10;2.50;;;19.50;71.60;;;;;;5073985;28;20252;-87
2021/07/31 10:09:49;;;;;;;9.27;2.45;;;19.10;70.30;;;;;;5055611;28;20217;-87
2021/07/31 10:12:16;;;;;;;5.95;2.22;;;19.20;70.80;;;;;;5055482;28;20195;-87
2021/07/31 10:14:43;;;;;;;2.85;1.58;;;19.30;70.50;;;;;;5056106;28;20167;-86
2021/07/31 10:17:10;;;;;;;7.32;2.65;;;19.30;70.10;;;;;;5074041;28;20611;-87
2021/07/31 10:19:38;;;;;;;2.65;2.05;;;19.60;69.80;;;;;;5055873;28;20202;-87
2021/07/31 10:22:04;;;;;;;5.22;2.45;;;19.20;70.30;;;;;;5055973;28;20301;-87
2021/07/31 10:25:10;;;;;;;6.38;2.20;;;19.10;70.50;;;;;;5073823;28;20215;-87
2021/07/31 10:27:36;;;;;;;9.18;2.90;;;19.10;71.60;;;;;;5045382;28;20210;-86
2021/07/31 10:30:04;;;;;;;5.55;1.73;;;18.90;72.50;;;;;;5055821;28;20186;-87
2021/07/31 10:32:32;;;;;;;4.20;1.80;;;18.90;70.50;;;;;;5073671;28;20195;-88
2021/07/31 10:35:04;;;;;;;2.90;1.90;;;19.40;70.60;;;;;;5073652;28;20171;-87
2021/07/31 10:37:34;;;;;;;5.05;1.50;;;19.20;70.60;;;;;;5056653;28;20171;-87
2021/07/31 10:40:05;;;;;;;4.57;1.80;;;19.20;71.40;;;;;;5073530;28;20198;-87
2021/07/31 10:42:53;;;;;;;5.35;1.83;;;19.10;70.70;;;;;;5073705;28;20187;-88
2021/07/31 10:45:22;;;;;;;4.47;1.73;;;19.00;72.00;;;;;;5073614;28;20586;-88
2021/07/31 10:47:49;;;;;;;4.43;1.77;;;18.90;71.00;;;;;;5073547;28;20167;-87
2021/07/31 10:52:55;;;;;;;6.78;2.25;;;18.70;71.50;;;;;;5073597;28;20746;-87
2021/07/31 10:55:41;;;;;;;6.00;2.17;;;18.80;72.80;;;;;;5073515;28;20181;-87
2021/07/31 10:58:11;;;;;;;5.55;1.95;;;19.10;70.90;;;;;;5045328;28;20187;-87
2021/07/31 11:00:38;;;;;;;4.88;2.03;;;19.10;70.50;;;;;;5055349;28;20701;-87
2021/07/31 11:03:15;;;;;;;2.13;1.30;;;18.90;71.10;;;;;;5055317;28;20178;-88
2021/07/31 11:06:00;;;;;;;3.08;1.83;;;18.80;70.70;;;;;;5073504;28;20171;-87
2021/07/31 11:08:30;;;;;;;3.55;2.10;;;18.70;70.90;;;;;;5073417;28;20612;-87
2021/07/31 11:11:18;;;;;;;5.93;1.33;;;18.70;70.80;;;;;;5055072;28;20203;-88
2021/07/31 11:13:44;;;;;;;13.75;2.20;;;18.70;71.60;;;;;;5060945;28;20186;-87
2021/07/31 11:16:19;;;;;;;5.78;1.50;;;18.80;72.00;;;;;;5073236;28;20238;-87
2021/07/31 11:18:54;;;;;;;3.38;1.90;;;18.60;71.40;;;;;;5055268;28;20159;-86
2021/07/31 11:21:28;;;;;;;3.20;1.80;;;18.40;73.50;;;;;;5072962;28;20213;-86
2021/07/31 11:24:04;;;;;;;5.10;2.50;;;17.90;76.20;;;;;;5059240;28;20194;-86
2021/07/31 11:26:43;;;;;;;3.17;1.80;;;17.50;79.80;;;;;;5059243;28;20175;-87
2021/07/31 11:29:17;;;;;;;4.78;2.60;;;17.40;79.80;;;;;;5077552;28;20620;-87
2021/07/31 11:32:11;;;;;;;5.65;2.28;;;17.40;82.60;;;;;;5058982;28;20252;-87
2021/07/31 11:34:40;;;;;;;5.13;2.65;;;17.30;82.20;;;;;;5059129;28;20167;-87
2021/07/31 11:37:09;;;;;;;3.95;1.98;;;17.30;84.40;;;;;;5076943;28;20172;-87
2021/07/31 11:39:39;;;;;;;4.63;2.17;;;17.40;84.00;;;;;;5058931;28;20201;-87
2021/07/31 11:42:05;;;;;;;4.47;2.35;;;17.40;83.10;;;;;;5076692;28;20191;-87
2021/07/31 11:44:36;;;;;;;5.05;2.40;;;17.40;83.80;;;;;;5076865;28;20217;-86
2021/07/31 11:47:03;;;;;;;5.70;2.03;;;17.40;83.00;;;;;;5076733;28;20240;-87
2021/07/31 11:49:34;;;;;;;5.25;2.38;;;17.30;84.50;;;;;;5058747;28;20229;-87
2021/07/31 11:52:03;;;;;;;8.05;2.58;;;17.20;84.60;;;;;;5058660;28;20210;-87
2021/07/31 11:54:31;;;;;;;7.13;2.40;;;17.20;85.20;;;;;;5076599;28;20544;-87
2021/07/31 11:56:58;;;;;;;3.85;2.38;;;17.20;85.30;;;;;;5058662;28;20198;-87
2021/07/31 11:59:37;;;;;;;3.58;2.30;;;17.20;85.00;;;;;;5059044;28;20179;-88
2021/07/31 12:02:03;;;;;;;3.60;2.03;;;17.10;86.10;;;;;;5058456;28;20199;-88
2021/07/31 12:04:48;;;;;;;8.90;2.65;;;16.80;86.10;;;;;;5076476;28;20171;-88
2021/07/31 12:07:24;;;;;;;10.63;2.85;;;16.80;87.00;;;;;;5058941;28;20186;-88
2021/07/31 12:10:09;;;;;;;6.05;2.30;;;16.80;87.00;;;;;;5058293;28;20167;-89
2021/07/31 12:12:36;;;;;;;7.93;2.67;;;16.70;87.30;;;;;;5059215;28;20248;-88
2021/07/31 12:15:24;;;;;;;9.93;3.30;;;16.70;87.30;;;;;;5058410;28;20175;-88
2021/07/31 12:18:02;;;;;;;9.35;3.22;;;16.60;87.90;;;;;;5058225;28;20206;-88
2021/07/31 12:20:35;;;;;;;5.10;2.70;;;16.60;87.80;;;;;;5076224;28;20194;-89
2021/07/31 12:23:02;;;;;;;8.35;3.10;;;16.70;88.50;;;;;;5076119;28;20178;-88
2021/07/31 12:25:29;;;;;;;5.20;2.92;;;16.70;89.20;;;;;;5058274;28;20666;-89
2021/07/31 12:28:09;;;;;;;5.67;3.30;;;16.70;88.40;;;;;;5058153;28;20179;-89
2021/07/31 12:30:34;;;;;;;6.33;3.00;;;16.60;88.80;;;;;;5058128;28;20199;-89
2021/07/31 12:33:04;;;;;;;7.97;3.60;;;16.60;88.90;;;;;;5057147;28;20248;-89
2021/07/31 12:35:32;;;;;;;5.63;3.10;;;16.60;89.40;;;;;;5057853;28;20175;-88
2021/07/31 12:37:58;;;;;;;6.93;3.00;;;16.60;88.40;;;;;;5075872;28;20176;-89
2021/07/31 12:40:24;;;;;;;10.63;2.80;;;16.70;88.40;;;;;;5057813;28;20223;-88
2021/07/31 12:42:49;;;;;;;9.32;2.95;;;16.70;88.60;;;;;;5075728;28;20172;-88
2021/07/31 12:45:15;;;;;;;9.23;3.03;;;16.70;88.80;;;;;;5058125;28;20171;-89
2021/07/31 12:47:41;;;;;;;6.53;2.42;;;16.70;88.20;;;;;;5057765;28;20202;-89
2021/07/31 12:50:07;;;;;;;8.43;2.80;;;16.80;88.10;;;;;;5075560;28;20168;-88
2021/07/31 12:52:33;;;;;;;8.98;3.20;;;17.00;87.90;;;;;;5057750;28;20238;-88